sensor_id;sensor_type;location;lat;lon;timestamp;pressure;altitude;pressure_sealevel;temperature;humidity
57572;BME280;44459;43.522;24.470;2023-05-24T00:01:04;99918.47;;;14.66;100.00
57572;BME280;44459;43.522;24.470;2023-05-24T00:03:32;99925.66;;;14.60;100.00
57572;BME280;44459;43.522;24.470;2023-05-24T00:05:59;99916.00;;;14.55;100.00
57572;BME280;44459;43.522;24.470;2023-05-24T00:08:25;99918.69;;;14.53;100.00
57572;BME280;44459;43.522;24.470;2023-05-24T00:10:51;99912.50;;;14.53;100.00
57572;BME280;44459;43.522;24.470;2023-05-24T00:13:16;99923.22;;;14.47;100.00
57572;BME280;44459;43.522;24.470;2023-05-24T00:15:42;99915.25;;;14.47;100.00
57572;BME280;44459;43.522;24.470;2023-05-24T00:18:07;99909.16;;;14.40;100.00
57572;BME280;44459;43.522;24.470;2023-05-24T00:20:33;99921.59;;;14.37;100.00
57572;BME280;44459;43.522;24.470;2023-05-24T00:22:58;99934.00;;;14.32;100.00
57572;BME280;44459;43.522;24.470;2023-05-24T00:25:23;99929.81;;;14.16;100.00
57572;BME280;44459;43.522;24.470;2023-05-24T00:27:49;99937.78;;;14.16;100.00
57572;BME280;44459;43.522;24.470;2023-05-24T00:30:15;99935.19;;;14.13;100.00
57572;BME280;44459;43.522;24.470;2023-05-24T00:32:40;99936.91;;;14.15;100.00
57572;BME280;44459;43.522;24.470;2023-05-24T00:35:06;99926.38;;;14.07;100.00
57572;BME280;44459;43.522;24.470;2023-05-24T00:37:31;99925.41;;;14.15;100.00
57572;BME280;44459;43.522;24.470;2023-05-24T00:39:57;99937.84;;;14.13;100.00
57572;BME280;44459;43.522;24.470;2023-05-24T00:42:22;99928.25;;;14.01;100.00
57572;BME280;44459;43.522;24.470;2023-05-24T00:44:48;99924.75;;;13.97;100.00
57572;BME280;44459;43.522;24.470;2023-05-24T00:47:14;99927.34;;;14.00;100.00
57572;BME280;44459;43.522;24.470;2023-05-24T00:49:40;99937.97;;;14.02;100.00
57572;BME280;44459;43.522;24.470;2023-05-24T00:52:05;99933.56;;;13.99;100.00
57572;BME280;44459;43.522;24.470;2023-05-24T00:54:33;99926.50;;;13.97;100.00
57572;BME280;44459;43.522;24.470;2023-05-24T00:56:59;99921.25;;;13.94;100.00
57572;BME280;44459;43.522;24.470;2023-05-24T00:59:25;99927.50;;;13.88;100.00
57572;BME280;44459;43.522;24.470;2023-05-24T01:01:51;99925.75;;;13.87;100.00
57572;BME280;44459;43.522;24.470;2023-05-24T01:04:16;99937.34;;;13.79;100.00
57572;BME280;44459;43.522;24.470;2023-05-24T01:12:25;99940.03;;;13.77;100.00
57572;BME280;44459;43.522;24.470;2023-05-24T01:20:16;99948.19;;;13.59;100.00
57572;BME280;44459;43.522;24.470;2023-05-24T01:25:26;99948.19;;;13.60;100.00
57572;BME280;44459;43.522;24.470;2023-05-24T01:28:00;99949.09;;;13.55;100.00
57572;BME280;44459;43.522;24.470;2023-05-24T01:30:27;99936.78;;;13.51;100.00
57572;BME280;44459;43.522;24.470;2023-05-24T01:32:53;99950.91;;;13.53;100.00
57572;BME280;44459;43.522;24.470;2023-05-24T01:35:18;99955.28;;;13.54;100.00
57572;BME280;44459;43.522;24.470;2023-05-24T01:37:43;99956.22;;;13.51;100.00
57572;BME280;44459;43.522;24.470;2023-05-24T01:40:10;99954.53;;;13.46;100.00
57572;BME280;44459;43.522;24.470;2023-05-24T01:43:02;99951.88;;;13.46;100.00
57572;BME280;44459;43.522;24.470;2023-05-24T01:45:48;99940.44;;;13.38;100.00
57572;BME280;44459;43.522;24.470;2023-05-24T01:48:35;99946.66;;;13.35;100.00
57572;BME280;44459;43.522;24.470;2023-05-24T01:51:05;99958.19;;;13.31;100.00
57572;BME280;44459;43.522;24.470;2023-05-24T01:53:32;99959.97;;;13.31;100.00
57572;BME280;44459;43.522;24.470;2023-05-24T01:56:01;99945.91;;;13.21;100.00
57572;BME280;44459;43.522;24.470;2023-05-24T01:58:28;99953.84;;;13.23;100.00
57572;BME280;44459;43.522;24.470;2023-05-24T02:00:55;99958.28;;;13.22;100.00
57572;BME280;44459;43.522;24.470;2023-05-24T02:03:21;99949.50;;;13.19;100.00
57572;BME280;44459;43.522;24.470;2023-05-24T02:05:46;99964.44;;;13.23;100.00
57572;BME280;44459;43.522;24.470;2023-05-24T02:08:12;99953.91;;;13.17;100.00
57572;BME280;44459;43.522;24.470;2023-05-24T02:10:38;99956.53;;;13.20;100.00
57572;BME280;44459;43.522;24.470;2023-05-24T02:13:05;99960.97;;;13.16;100.00
57572;BME280;44459;43.522;24.470;2023-05-24T02:15:31;99956.56;;;13.17;100.00
57572;BME280;44459;43.522;24.470;2023-05-24T02:17:57;99953.06;;;13.15;100.00
57572;BME280;44459;43.522;24.470;2023-05-24T02:20:22;99951.28;;;13.14;100.00
57572;BME280;44459;43.522;24.470;2023-05-24T02:22:49;99953.91;;;13.17;100.00
57572;BME280;44459;43.522;24.470;2023-05-24T02:25:14;99950.44;;;13.12;100.00
57572;BME280;44459;43.522;24.470;2023-05-24T02:27:40;99952.16;;;13.13;100.00
57572;BME280;44459;43.522;24.470;2023-05-24T02:30:07;99953.94;;;13.14;100.00
57572;BME280;44459;43.522;24.470;2023-05-24T02:32:33;99955.69;;;13.15;100.00
57572;BME280;44459;43.522;24.470;2023-05-24T02:34:59;99953.06;;;13.15;100.00
57572;BME280;44459;43.522;24.470;2023-05-24T02:37:26;99954.81;;;13.14;100.00
57572;BME280;44459;43.522;24.470;2023-05-24T02:39:52;99941.59;;;13.09;100.00
57572;BME280;44459;43.522;24.470;2023-05-24T02:42:17;99936.31;;;13.11;100.00
57572;BME280;44459;43.522;24.470;2023-05-24T02:44:43;99935.41;;;13.07;100.00
57572;BME280;44459;43.522;24.470;2023-05-24T02:47:12;99948.66;;;13.06;100.00
57572;BME280;44459;43.522;24.470;2023-05-24T02:49:37;99946.94;;;13.05;100.00
57572;BME280;44459;43.522;24.470;2023-05-24T02:52:03;99941.75;;;12.90;100.00
57572;BME280;44459;43.522;24.470;2023-05-24T02:54:29;99947.84;;;12.99;100.00
57572;BME280;44459;43.522;24.470;2023-05-24T02:56:54;99949.63;;;12.96;100.00
57572;BME280;44459;43.522;24.470;2023-05-24T02:59:21;99950.50;;;13.01;100.00
57572;BME280;44459;43.522;24.470;2023-05-24T03:01:47;99946.94;;;13.02;100.00
57572;BME280;44459;43.522;24.470;2023-05-24T03:04:12;99946.06;;;13.01;100.00
57572;BME280;44459;43.522;24.470;2023-05-24T03:06:37;99952.22;;;13.05;100.00
57572;BME280;44459;43.522;24.470;2023-05-24T03:09:03;99946.94;;;13.02;100.00
57572;BME280;44459;43.522;24.470;2023-05-24T03:11:29;99958.38;;;13.07;100.00
57572;BME280;44459;43.522;24.470;2023-05-24T03:13:54;99949.53;;;13.11;100.00
57572;BME280;44459;43.522;24.470;2023-05-24T03:16:20;99950.41;;;13.08;100.00
57572;BME280;44459;43.522;24.470;2023-05-24T03:18:45;99955.72;;;13.10;100.00
57572;BME280;44459;43.522;24.470;2023-05-24T03:21:11;99963.63;;;13.16;100.00
57572;BME280;44459;43.522;24.470;2023-05-24T03:23:36;99958.34;;;13.15;100.00
57572;BME280;44459;43.522;24.470;2023-05-24T03:26:02;99963.59;;;13.22;100.00
57572;BME280;44459;43.522;24.470;2023-05-24T03:28:27;99960.00;;;13.26;100.00
57572;BME280;44459;43.522;24.470;2023-05-24T03:30:54;99959.06;;;13.32;100.00
57572;BME280;44459;43.522;24.470;2023-05-24T03:33:19;99961.69;;;13.35;100.00
57572;BME280;44459;43.522;24.470;2023-05-24T03:35:45;99964.31;;;13.36;100.00
57572;BME280;44459;43.522;24.470;2023-05-24T03:38:10;99950.22;;;13.36;100.00
57572;BME280;44459;43.522;24.470;2023-05-24T03:40:36;99953.66;;;13.42;100.00
57572;BME280;44459;43.522;24.470;2023-05-24T03:43:02;99950.94;;;13.48;100.00
57572;BME280;44459;43.522;24.470;2023-05-24T03:45:28;99949.06;;;13.58;100.00
57572;BME280;44459;43.522;24.470;2023-05-24T03:47:53;99959.56;;;13.70;100.00
57572;BME280;44459;43.522;24.470;2023-05-24T03:50:19;99948.00;;;13.76;100.00
57572;BME280;44459;43.522;24.470;2023-05-24T03:52:44;99957.59;;;13.86;100.00
57572;BME280;44459;43.522;24.470;2023-05-24T03:55:11;99957.44;;;13.99;100.00
57572;BME280;44459;43.522;24.470;2023-05-24T03:57:36;99949.38;;;14.07;100.00
57572;BME280;44459;43.522;24.470;2023-05-24T04:00:02;99950.19;;;14.13;100.00
57572;BME280;44459;43.522;24.470;2023-05-24T04:02:31;99949.09;;;14.30;100.00
57572;BME280;44459;43.522;24.470;2023-05-24T04:04:56;99956.97;;;14.39;100.00
57572;BME280;44459;43.522;24.470;2023-05-24T04:07:21;99965.63;;;14.53;100.00
57572;BME280;44459;43.522;24.470;2023-05-24T04:09:48;99963.69;;;14.64;100.00
57572;BME280;44459;43.522;24.470;2023-05-24T04:12:14;99961.59;;;14.84;100.00
57572;BME280;44459;43.522;24.470;2023-05-24T04:14:39;99958.69;;;14.99;100.00
57572;BME280;44459;43.522;24.470;2023-05-24T04:17:05;99967.25;;;15.18;100.00
57572;BME280;44459;43.522;24.470;2023-05-24T04:19:32;99970.59;;;15.29;100.00
57572;BME280;44459;43.522;24.470;2023-05-24T04:21:57;99972.09;;;15.45;99.86
57572;BME280;44459;43.522;24.470;2023-05-24T04:24:23;99972.69;;;15.63;100.00
57572;BME280;44459;43.522;24.470;2023-05-24T04:26:48;99972.41;;;15.76;100.00
57572;BME280;44459;43.522;24.470;2023-05-24T04:29:14;99982.91;;;15.85;98.23
57572;BME280;44459;43.522;24.470;2023-05-24T04:31:40;99987.97;;;15.97;97.27
57572;BME280;44459;43.522;24.470;2023-05-24T04:34:08;99989.56;;;16.07;97.77
57572;BME280;44459;43.522;24.470;2023-05-24T04:36:34;99982.16;;;16.22;97.56
57572;BME280;44459;43.522;24.470;2023-05-24T04:39:00;99994.25;;;16.38;95.37
57572;BME280;44459;43.522;24.470;2023-05-24T04:41:29;99992.22;;;16.49;93.49
57572;BME280;44459;43.522;24.470;2023-05-24T04:43:57;99997.19;;;16.67;94.11
57572;BME280;44459;43.522;24.470;2023-05-24T04:46:24;99998.06;;;16.68;89.78
57572;BME280;44459;43.522;24.470;2023-05-24T04:48:50;100001.44;;;16.76;91.02
57572;BME280;44459;43.522;24.470;2023-05-24T04:51:16;99993.88;;;16.94;92.35
57572;BME280;44459;43.522;24.470;2023-05-24T04:53:41;99997.06;;;17.10;91.36
57572;BME280;44459;43.522;24.470;2023-05-24T04:56:07;100001.22;;;17.22;89.49
57572;BME280;44459;43.522;24.470;2023-05-24T04:58:32;99999.88;;;17.39;90.89
57572;BME280;44459;43.522;24.470;2023-05-24T05:00:59;99999.59;;;17.51;88.82
57572;BME280;44459;43.522;24.470;2023-05-24T05:03:25;99990.38;;;17.65;89.60
57572;BME280;44459;43.522;24.470;2023-05-24T05:05:51;99989.09;;;17.79;89.32
57572;BME280;44459;43.522;24.470;2023-05-24T05:08:16;99990.50;;;17.92;88.78
57572;BME280;44459;43.522;24.470;2023-05-24T05:10:41;99998.09;;;18.07;89.12
57572;BME280;44459;43.522;24.470;2023-05-24T05:13:07;99987.84;;;18.23;87.76
57572;BME280;44459;43.522;24.470;2023-05-24T05:15:32;99983.09;;;18.33;85.72
57572;BME280;44459;43.522;24.470;2023-05-24T05:17:58;99990.63;;;18.49;86.36
57572;BME280;44459;43.522;24.470;2023-05-24T05:20:24;99989.47;;;18.59;85.99
57572;BME280;44459;43.522;24.470;2023-05-24T05:22:50;99985.25;;;18.80;86.44
57572;BME280;44459;43.522;24.470;2023-05-24T05:25:15;99991.53;;;19.05;84.87
57572;BME280;44459;43.522;24.470;2023-05-24T05:27:41;99990.91;;;19.25;85.29
57572;BME280;44459;43.522;24.470;2023-05-24T05:30:07;99997.59;;;19.38;82.01
57572;BME280;44459;43.522;24.470;2023-05-24T05:32:33;99991.81;;;19.52;81.13
57572;BME280;44459;43.522;24.470;2023-05-24T05:34:58;100003.75;;;19.68;81.43
57572;BME280;44459;43.522;24.470;2023-05-24T05:37:23;100012.47;;;19.75;79.54
57572;BME280;44459;43.522;24.470;2023-05-24T05:39:49;100005.63;;;19.91;80.47
57572;BME280;44459;43.522;24.470;2023-05-24T05:42:15;100009.50;;;20.07;80.36
57572;BME280;44459;43.522;24.470;2023-05-24T05:44:40;100013.13;;;20.31;79.67
57572;BME280;44459;43.522;24.470;2023-05-24T05:47:05;100011.44;;;20.51;79.59
57572;BME280;44459;43.522;24.470;2023-05-24T05:49:32;100015.47;;;20.63;75.45
57572;BME280;44459;43.522;24.470;2023-05-24T05:52:01;100010.63;;;20.73;75.09
57572;BME280;44459;43.522;24.470;2023-05-24T05:54:27;100018.88;;;20.90;76.32
57572;BME280;44459;43.522;24.470;2023-05-24T05:56:52;100018.09;;;21.09;73.69
57572;BME280;44459;43.522;24.470;2023-05-24T05:59:18;100022.75;;;21.28;76.06
57572;BME280;44459;43.522;24.470;2023-05-24T06:01:44;100025.19;;;21.34;71.92
57572;BME280;44459;43.522;24.470;2023-05-24T06:04:14;100026.38;;;21.27;72.93
57572;BME280;44459;43.522;24.470;2023-05-24T06:06:39;100037.31;;;21.44;71.37
57572;BME280;44459;43.522;24.470;2023-05-24T06:09:05;100029.59;;;21.35;72.41
57572;BME280;44459;43.522;24.470;2023-05-24T06:11:30;100036.91;;;21.53;75.42
57572;BME280;44459;43.522;24.470;2023-05-24T06:13:56;100030.06;;;21.66;72.63
57572;BME280;44459;43.522;24.470;2023-05-24T06:16:21;100034.63;;;21.86;71.66
57572;BME280;44459;43.522;24.470;2023-05-24T06:18:47;100033.19;;;21.99;70.64
57572;BME280;44459;43.522;24.470;2023-05-24T06:21:13;100038.63;;;22.18;72.83
57572;BME280;44459;43.522;24.470;2023-05-24T06:23:39;100043.56;;;22.47;69.94
57572;BME280;44459;43.522;24.470;2023-05-24T06:26:05;100042.13;;;22.58;68.41
57572;BME280;44459;43.522;24.470;2023-05-24T06:28:37;100039.41;;;22.79;69.10
57572;BME280;44459;43.522;24.470;2023-05-24T06:31:05;100046.25;;;22.86;65.70
57572;BME280;44459;43.522;24.470;2023-05-24T06:33:30;100044.22;;;22.91;66.20
57572;BME280;44459;43.522;24.470;2023-05-24T06:35:59;100046.44;;;23.19;64.79
57572;BME280;44459;43.522;24.470;2023-05-24T06:38:24;100045.22;;;23.26;63.75
57572;BME280;44459;43.522;24.470;2023-05-24T06:40:51;100046.19;;;23.25;63.36
57572;BME280;44459;43.522;24.470;2023-05-24T06:43:17;100046.25;;;23.23;64.31
57572;BME280;44459;43.522;24.470;2023-05-24T06:45:42;100048.19;;;23.38;61.72
57572;BME280;44459;43.522;24.470;2023-05-24T06:48:07;100047.53;;;23.33;62.16
57572;BME280;44459;43.522;24.470;2023-05-24T06:50:33;100041.94;;;23.57;61.97
57572;BME280;44459;43.522;24.470;2023-05-24T06:53:00;100046.34;;;23.58;62.57
57572;BME280;44459;43.522;24.470;2023-05-24T06:55:27;100045.94;;;23.48;60.23
57572;BME280;44459;43.522;24.470;2023-05-24T06:57:52;100045.25;;;23.62;59.58
57572;BME280;44459;43.522;24.470;2023-05-24T07:00:18;100046.88;;;23.83;59.37
57572;BME280;44459;43.522;24.470;2023-05-24T07:02:44;100049.25;;;24.06;60.29
57572;BME280;44459;43.522;24.470;2023-05-24T07:05:09;100039.81;;;24.32;59.17
57572;BME280;44459;43.522;24.470;2023-05-24T07:07:39;100032.34;;;24.37;58.06
57572;BME280;44459;43.522;24.470;2023-05-24T07:10:08;100034.47;;;24.47;57.58
57572;BME280;44459;43.522;24.470;2023-05-24T07:12:35;100039.44;;;24.55;57.46
57572;BME280;44459;43.522;24.470;2023-05-24T07:15:01;100046.31;;;24.45;56.42
57572;BME280;44459;43.522;24.470;2023-05-24T07:17:27;100044.59;;;24.60;56.08
57572;BME280;44459;43.522;24.470;2023-05-24T07:19:52;100047.31;;;24.75;57.09
57572;BME280;44459;43.522;24.470;2023-05-24T07:22:18;100042.84;;;24.59;55.22
57572;BME280;44459;43.522;24.470;2023-05-24T07:24:43;100050.25;;;24.55;57.54
57572;BME280;44459;43.522;24.470;2023-05-24T07:27:08;100050.16;;;24.89;56.40
57572;BME280;44459;43.522;24.470;2023-05-24T07:29:34;100043.22;;;25.01;56.30
57572;BME280;44459;43.522;24.470;2023-05-24T07:32:00;100045.25;;;24.80;56.30
57572;BME280;44459;43.522;24.470;2023-05-24T07:34:26;100049.50;;;25.33;55.91
57572;BME280;44459;43.522;24.470;2023-05-24T07:36:54;100052.41;;;25.61;55.81
57572;BME280;44459;43.522;24.470;2023-05-24T07:39:19;100056.63;;;25.81;55.54
57572;BME280;44459;43.522;24.470;2023-05-24T07:41:45;100048.88;;;26.04;53.38
57572;BME280;44459;43.522;24.470;2023-05-24T07:44:12;100049.28;;;26.13;52.88
57572;BME280;44459;43.522;24.470;2023-05-24T07:46:37;100057.69;;;26.38;52.31
57572;BME280;44459;43.522;24.470;2023-05-24T07:49:03;100051.00;;;26.14;51.11
57572;BME280;44459;43.522;24.470;2023-05-24T07:51:28;100058.50;;;26.24;53.33
57572;BME280;44459;43.522;24.470;2023-05-24T07:53:54;100054.41;;;26.47;52.66
57572;BME280;44459;43.522;24.470;2023-05-24T07:56:20;100054.09;;;26.37;51.63
57572;BME280;44459;43.522;24.470;2023-05-24T07:58:45;100060.41;;;26.38;51.28
57572;BME280;44459;43.522;24.470;2023-05-24T08:01:11;100050.72;;;26.34;53.56
57572;BME280;44459;43.522;24.470;2023-05-24T08:03:37;100056.81;;;26.37;51.10
57572;BME280;44459;43.522;24.470;2023-05-24T08:06:03;100052.09;;;26.55;52.99
57572;BME280;44459;43.522;24.470;2023-05-24T08:08:29;100053.81;;;26.70;50.47
57572;BME280;44459;43.522;24.470;2023-05-24T08:10:55;100057.13;;;26.61;50.48
57572;BME280;44459;43.522;24.470;2023-05-24T08:13:20;100043.38;;;26.50;49.12
57572;BME280;44459;43.522;24.470;2023-05-24T08:15:46;100049.38;;;26.41;50.70
57572;BME280;44459;43.522;24.470;2023-05-24T08:18:11;100043.19;;;26.53;49.02
57572;BME280;44459;43.522;24.470;2023-05-24T08:20:37;100043.00;;;26.70;48.33
57572;BME280;44459;43.522;24.470;2023-05-24T08:23:02;100046.19;;;26.77;48.72
57572;BME280;44459;43.522;24.470;2023-05-24T08:25:28;100050.34;;;26.54;46.90
57572;BME280;44459;43.522;24.470;2023-05-24T08:27:53;100047.03;;;26.49;45.38
57572;BME280;44459;43.522;24.470;2023-05-24T08:30:21;100052.06;;;26.69;47.02
57572;BME280;44459;43.522;24.470;2023-05-24T08:32:47;100042.50;;;26.78;48.22
57572;BME280;44459;43.522;24.470;2023-05-24T08:35:13;100056.34;;;27.01;47.04
57572;BME280;44459;43.522;24.470;2023-05-24T08:37:38;100045.03;;;27.09;49.09
57572;BME280;44459;43.522;24.470;2023-05-24T08:40:04;100040.06;;;27.30;47.67
57572;BME280;44459;43.522;24.470;2023-05-24T08:42:30;100049.50;;;27.51;44.92
57572;BME280;44459;43.522;24.470;2023-05-24T08:45:07;100047.94;;;27.74;48.36
57572;BME280;44459;43.522;24.470;2023-05-24T08:47:35;100043.75;;;27.82;44.90
57572;BME280;44459;43.522;24.470;2023-05-24T08:50:01;100049.88;;;27.98;46.06
57572;BME280;44459;43.522;24.470;2023-05-24T08:52:28;100051.16;;;28.20;46.80
57572;BME280;44459;43.522;24.470;2023-05-24T08:54:57;100053.25;;;28.29;45.99
57572;BME280;44459;43.522;24.470;2023-05-24T08:57:25;100042.59;;;28.38;45.71
57572;BME280;44459;43.522;24.470;2023-05-24T08:59:51;100058.03;;;28.38;44.63
57572;BME280;44459;43.522;24.470;2023-05-24T09:02:20;100057.25;;;28.36;46.03
57572;BME280;44459;43.522;24.470;2023-05-24T09:04:48;100054.97;;;28.30;42.56
57572;BME280;44459;43.522;24.470;2023-05-24T09:07:16;100054.03;;;28.04;43.48
57572;BME280;44459;43.522;24.470;2023-05-24T09:09:52;100058.28;;;28.08;43.68
57572;BME280;44459;43.522;24.470;2023-05-24T09:12:21;100059.72;;;28.26;43.15
57572;BME280;44459;43.522;24.470;2023-05-24T09:14:47;100049.75;;;28.27;42.07
57572;BME280;44459;43.522;24.470;2023-05-24T09:17:13;100048.03;;;28.51;44.63
57572;BME280;44459;43.522;24.470;2023-05-24T09:19:43;100051.78;;;28.11;43.00
57572;BME280;44459;43.522;24.470;2023-05-24T09:22:12;100044.72;;;27.28;44.01
57572;BME280;44459;43.522;24.470;2023-05-24T09:24:42;100044.97;;;27.37;43.61
57572;BME280;44459;43.522;24.470;2023-05-24T09:27:07;100047.00;;;27.34;45.93
57572;BME280;44459;43.522;24.470;2023-05-24T09:29:36;100041.16;;;27.54;44.98
57572;BME280;44459;43.522;24.470;2023-05-24T09:32:03;100046.41;;;27.43;43.72
57572;BME280;44459;43.522;24.470;2023-05-24T09:34:41;100036.97;;;27.22;44.58
57572;BME280;44459;43.522;24.470;2023-05-24T09:37:15;100047.53;;;27.12;43.06
57572;BME280;44459;43.522;24.470;2023-05-24T09:39:43;100046.16;;;27.19;44.49
57572;BME280;44459;43.522;24.470;2023-05-24T09:42:14;100053.63;;;26.59;44.45
57572;BME280;44459;43.522;24.470;2023-05-24T09:44:40;100046.28;;;26.75;42.42
57572;BME280;44459;43.522;24.470;2023-05-24T09:47:06;100043.00;;;26.98;44.10
57572;BME280;44459;43.522;24.470;2023-05-24T09:49:35;100033.25;;;26.82;43.28
57572;BME280;44459;43.522;24.470;2023-05-24T09:52:01;100032.94;;;26.58;44.94
57572;BME280;44459;43.522;24.470;2023-05-24T09:54:27;100031.00;;;26.60;46.13
57572;BME280;44459;43.522;24.470;2023-05-24T09:56:53;100025.78;;;26.71;43.86
57572;BME280;44459;43.522;24.470;2023-05-24T09:59:19;100030.91;;;26.47;42.75
57572;BME280;44459;43.522;24.470;2023-05-24T10:01:44;100026.88;;;26.83;42.98
57572;BME280;44459;43.522;24.470;2023-05-24T10:04:11;100023.59;;;27.19;48.62
57572;BME280;44459;43.522;24.470;2023-05-24T10:06:37;100024.53;;;27.32;43.16
57572;BME280;44459;43.522;24.470;2023-05-24T10:09:03;100023.63;;;27.05;44.28
57572;BME280;44459;43.522;24.470;2023-05-24T10:11:32;100017.56;;;26.59;44.76
57572;BME280;44459;43.522;24.470;2023-05-24T10:13:57;100019.09;;;26.48;46.26
57572;BME280;44459;43.522;24.470;2023-05-24T10:16:24;100018.25;;;26.48;47.00
57572;BME280;44459;43.522;24.470;2023-05-24T10:18:49;100025.97;;;26.54;45.21
57572;BME280;44459;43.522;24.470;2023-05-24T10:21:16;100015.22;;;26.52;46.17
57572;BME280;44459;43.522;24.470;2023-05-24T10:23:44;100017.66;;;26.57;46.91
57572;BME280;44459;43.522;24.470;2023-05-24T10:26:15;100014.84;;;26.87;46.92
57572;BME280;44459;43.522;24.470;2023-05-24T10:28:43;100021.53;;;26.95;44.71
57572;BME280;44459;43.522;24.470;2023-05-24T10:31:14;100029.41;;;26.86;44.65
57572;BME280;44459;43.522;24.470;2023-05-24T10:33:43;100015.81;;;26.58;45.59
57572;BME280;44459;43.522;24.470;2023-05-24T10:36:11;100019.97;;;27.06;46.50
57572;BME280;44459;43.522;24.470;2023-05-24T10:38:38;100020.34;;;27.14;45.02
57572;BME280;44459;43.522;24.470;2023-05-24T10:41:05;100008.53;;;27.00;44.71
57572;BME280;44459;43.522;24.470;2023-05-24T10:43:35;100006.03;;;26.97;45.40
57572;BME280;44459;43.522;24.470;2023-05-24T10:46:01;100006.41;;;27.06;43.82
57572;BME280;44459;43.522;24.470;2023-05-24T10:50:54;99995.88;;;27.42;44.85
57572;BME280;44459;43.522;24.470;2023-05-24T10:53:25;100000.50;;;27.67;43.90
57572;BME280;44459;43.522;24.470;2023-05-24T10:55:55;100001.09;;;27.84;43.14
57572;BME280;44459;43.522;24.470;2023-05-24T10:58:44;99981.75;;;28.16;44.79
57572;BME280;44459;43.522;24.470;2023-05-24T11:03:51;99993.81;;;28.62;39.52
57572;BME280;44459;43.522;24.470;2023-05-24T11:06:17;99984.25;;;28.31;41.47
57572;BME280;44459;43.522;24.470;2023-05-24T11:08:42;99981.66;;;28.30;42.26
57572;BME280;44459;43.522;24.470;2023-05-24T11:11:12;99980.22;;;28.12;40.18
57572;BME280;44459;43.522;24.470;2023-05-24T11:13:39;99987.59;;;28.22;41.26
57572;BME280;44459;43.522;24.470;2023-05-24T11:16:06;99993.25;;;28.57;42.03
57572;BME280;44459;43.522;24.470;2023-05-24T11:18:32;99985.44;;;28.65;41.77
57572;BME280;44459;43.522;24.470;2023-05-24T11:21:03;99979.69;;;28.44;39.94
57572;BME280;44459;43.522;24.470;2023-05-24T11:23:30;99980.00;;;28.40;40.39
57572;BME280;44459;43.522;24.470;2023-05-24T11:25:56;99980.78;;;28.42;39.39
57572;BME280;44459;43.522;24.470;2023-05-24T11:28:22;99979.38;;;28.49;42.69
57572;BME280;44459;43.522;24.470;2023-05-24T11:30:48;99976.13;;;28.69;40.92
57572;BME280;44459;43.522;24.470;2023-05-24T11:33:22;99977.09;;;28.68;42.32
57572;BME280;44459;43.522;24.470;2023-05-24T11:35:50;99976.53;;;28.76;40.74
57572;BME280;44459;43.522;24.470;2023-05-24T11:38:18;99963.94;;;28.98;41.18
57572;BME280;44459;43.522;24.470;2023-05-24T11:40:46;99960.41;;;29.22;41.84
57572;BME280;44459;43.522;24.470;2023-05-24T11:43:16;99961.75;;;28.67;40.99
57572;BME280;44459;43.522;24.470;2023-05-24T11:45:44;99967.63;;;28.36;40.38
57572;BME280;44459;43.522;24.470;2023-05-24T11:48:10;99963.50;;;28.43;40.57
57572;BME280;44459;43.522;24.470;2023-05-24T11:50:40;99957.38;;;28.01;40.52
57572;BME280;44459;43.522;24.470;2023-05-24T11:53:12;99959.19;;;28.28;40.56
57572;BME280;44459;43.522;24.470;2023-05-24T11:55:40;99952.28;;;27.97;41.88
57572;BME280;44459;43.522;24.470;2023-05-24T12:00:41;99955.56;;;28.40;41.19
57572;BME280;44459;43.522;24.470;2023-05-24T12:03:07;99942.63;;;28.69;40.38
57572;BME280;44459;43.522;24.470;2023-05-24T12:05:34;99941.97;;;28.65;42.04
57572;BME280;44459;43.522;24.470;2023-05-24T12:08:07;99948.72;;;28.60;40.51
57572;BME280;44459;43.522;24.470;2023-05-24T12:10:37;99947.59;;;28.75;39.43
57572;BME280;44459;43.522;24.470;2023-05-24T12:13:04;99939.13;;;28.79;41.51
57572;BME280;44459;43.522;24.470;2023-05-24T12:15:30;99936.34;;;29.05;39.12
57572;BME280;44459;43.522;24.470;2023-05-24T12:17:57;99937.88;;;29.20;38.86
57572;BME280;44459;43.522;24.470;2023-05-24T12:20:23;99926.59;;;29.26;39.84
57572;BME280;44459;43.522;24.470;2023-05-24T12:22:50;99939.19;;;29.27;40.43
57572;BME280;44459;43.522;24.470;2023-05-24T12:25:17;99933.47;;;28.82;39.86
57572;BME280;44459;43.522;24.470;2023-05-24T12:27:54;99921.78;;;28.44;42.02
57572;BME280;44459;43.522;24.470;2023-05-24T12:30:23;99928.53;;;28.13;42.08
57572;BME280;44459;43.522;24.470;2023-05-24T12:32:49;99927.03;;;28.22;42.18
57572;BME280;44459;43.522;24.470;2023-05-24T12:35:19;99921.16;;;28.28;41.42
57572;BME280;44459;43.522;24.470;2023-05-24T12:37:45;99919.47;;;27.87;41.61
57572;BME280;44459;43.522;24.470;2023-05-24T12:40:18;99912.88;;;27.66;41.92
57572;BME280;44459;43.522;24.470;2023-05-24T12:42:57;99907.13;;;27.83;41.02
57572;BME280;44459;43.522;24.470;2023-05-24T12:45:24;99916.97;;;27.59;42.76
57572;BME280;44459;43.522;24.470;2023-05-24T12:47:55;99900.47;;;27.87;41.96
57572;BME280;44459;43.522;24.470;2023-05-24T12:50:23;99906.59;;;28.16;40.56
57572;BME280;44459;43.522;24.470;2023-05-24T12:52:48;99898.38;;;28.18;41.28
57572;BME280;44459;43.522;24.470;2023-05-24T12:55:18;99899.66;;;28.25;40.29
57572;BME280;44459;43.522;24.470;2023-05-24T12:57:44;99896.81;;;28.39;39.38
57572;BME280;44459;43.522;24.470;2023-05-24T13:00:18;99901.81;;;28.32;39.18
57572;BME280;44459;43.522;24.470;2023-05-24T13:02:43;99894.88;;;28.28;40.84